Terminal Aerodrome Forecast
Issued by NWS Norman, OK

Home | Current Version | Previous Version | Text Only | Print | Product List | Glossary On
Versions: 1 2 3 4 5 6 7 8 9 10 11 12 13 14 15 16 17 18 19 20 21 22
000
FTUS44 KOUN 291739
TAFSPS
TAF
KSPS 291739Z 2918/3018 13008KT P6SM SCT050
      TEMPO 3000/3004 2SM TSRA BR BKN025CB
     FM300400 14008KT 4SM -TSRA BR SCT015 BKN030CB
     FM300800 16006KT P6SM SCT015 BKN030
      TEMPO 3011/3015 OVC015=

USA.gov is the U.S. government's official web portal to all federal, state and local government web resources and services.